sensor_id;sensor_type;location;lat;lon;timestamp;P1;durP1;ratioP1;P2;durP2;ratioP2
42944;SDS011;28584;42.636;23.294;2023-09-12T00:00:44;4.40;;;3.22;;
42944;SDS011;28584;42.636;23.294;2023-09-12T00:03:10;7.13;;;4.00;;
42944;SDS011;28584;42.636;23.294;2023-09-12T00:05:36;7.68;;;3.97;;
42944;SDS011;28584;42.636;23.294;2023-09-12T00:08:01;12.18;;;3.70;;
42944;SDS011;28584;42.636;23.294;2023-09-12T00:10:27;5.85;;;3.35;;
42944;SDS011;28584;42.636;23.294;2023-09-12T00:12:53;8.68;;;3.97;;
42944;SDS011;28584;42.636;23.294;2023-09-12T00:15:18;5.63;;;3.50;;
42944;SDS011;28584;42.636;23.294;2023-09-12T00:17:44;6.93;;;3.25;;
42944;SDS011;28584;42.636;23.294;2023-09-12T00:20:10;7.05;;;3.70;;
42944;SDS011;28584;42.636;23.294;2023-09-12T00:22:36;6.40;;;3.70;;
42944;SDS011;28584;42.636;23.294;2023-09-12T00:25:01;8.68;;;3.63;;
42944;SDS011;28584;42.636;23.294;2023-09-12T00:27:27;6.05;;;3.65;;
42944;SDS011;28584;42.636;23.294;2023-09-12T00:29:52;9.13;;;4.00;;
42944;SDS011;28584;42.636;23.294;2023-09-12T00:32:18;4.85;;;3.72;;
42944;SDS011;28584;42.636;23.294;2023-09-12T00:34:43;6.72;;;3.65;;
42944;SDS011;28584;42.636;23.294;2023-09-12T00:37:09;10.73;;;3.88;;
42944;SDS011;28584;42.636;23.294;2023-09-12T00:39:35;11.32;;;3.80;;
42944;SDS011;28584;42.636;23.294;2023-09-12T00:42:00;5.40;;;3.47;;
42944;SDS011;28584;42.636;23.294;2023-09-12T00:44:25;6.63;;;3.63;;
42944;SDS011;28584;42.636;23.294;2023-09-12T00:47:09;5.00;;;3.47;;
42944;SDS011;28584;42.636;23.294;2023-09-12T00:49:36;6.15;;;3.33;;
42944;SDS011;28584;42.636;23.294;2023-09-12T00:52:03;6.75;;;3.50;;
42944;SDS011;28584;42.636;23.294;2023-09-12T00:54:29;3.53;;;3.17;;
42944;SDS011;28584;42.636;23.294;2023-09-12T00:56:55;5.93;;;3.35;;
42944;SDS011;28584;42.636;23.294;2023-09-12T00:59:21;5.93;;;3.40;;
42944;SDS011;28584;42.636;23.294;2023-09-12T01:01:47;9.35;;;3.90;;
42944;SDS011;28584;42.636;23.294;2023-09-12T01:04:13;3.85;;;2.95;;
42944;SDS011;28584;42.636;23.294;2023-09-12T01:06:39;4.50;;;3.50;;
42944;SDS011;28584;42.636;23.294;2023-09-12T01:09:05;7.25;;;3.67;;
42944;SDS011;28584;42.636;23.294;2023-09-12T01:11:30;5.00;;;3.17;;
42944;SDS011;28584;42.636;23.294;2023-09-12T01:13:56;7.15;;;3.30;;
42944;SDS011;28584;42.636;23.294;2023-09-12T01:16:22;6.70;;;3.88;;
42944;SDS011;28584;42.636;23.294;2023-09-12T01:18:47;7.07;;;3.15;;
42944;SDS011;28584;42.636;23.294;2023-09-12T01:29:42;3.90;;;2.85;;
42944;SDS011;28584;42.636;23.294;2023-09-12T01:32:10;6.15;;;2.90;;
42944;SDS011;28584;42.636;23.294;2023-09-12T01:34:35;3.72;;;2.90;;
42944;SDS011;28584;42.636;23.294;2023-09-12T01:37:01;5.85;;;3.47;;
42944;SDS011;28584;42.636;23.294;2023-09-12T01:39:26;6.80;;;3.78;;
42944;SDS011;28584;42.636;23.294;2023-09-12T01:41:52;6.50;;;3.53;;
42944;SDS011;28584;42.636;23.294;2023-09-12T01:44:19;5.78;;;3.53;;
42944;SDS011;28584;42.636;23.294;2023-09-12T01:46:49;6.15;;;3.40;;
42944;SDS011;28584;42.636;23.294;2023-09-12T01:49:18;6.25;;;3.80;;
42944;SDS011;28584;42.636;23.294;2023-09-12T01:51:46;5.38;;;3.40;;
42944;SDS011;28584;42.636;23.294;2023-09-12T01:54:12;5.72;;;3.88;;
42944;SDS011;28584;42.636;23.294;2023-09-12T01:56:39;5.65;;;3.75;;
42944;SDS011;28584;42.636;23.294;2023-09-12T01:59:05;5.78;;;3.50;;
42944;SDS011;28584;42.636;23.294;2023-09-12T02:01:31;5.80;;;3.55;;
42944;SDS011;28584;42.636;23.294;2023-09-12T02:03:57;5.80;;;3.33;;
42944;SDS011;28584;42.636;23.294;2023-09-12T02:06:22;5.60;;;3.65;;
42944;SDS011;28584;42.636;23.294;2023-09-12T02:08:48;3.83;;;3.33;;
42944;SDS011;28584;42.636;23.294;2023-09-12T02:11:14;7.95;;;3.50;;
42944;SDS011;28584;42.636;23.294;2023-09-12T02:13:39;8.50;;;3.78;;
42944;SDS011;28584;42.636;23.294;2023-09-12T02:16:05;5.82;;;3.10;;
42944;SDS011;28584;42.636;23.294;2023-09-12T02:18:30;3.80;;;3.35;;
42944;SDS011;28584;42.636;23.294;2023-09-12T02:20:55;5.75;;;3.42;;
42944;SDS011;28584;42.636;23.294;2023-09-12T02:23:23;7.95;;;4.00;;
42944;SDS011;28584;42.636;23.294;2023-09-12T02:25:49;5.40;;;3.60;;
42944;SDS011;28584;42.636;23.294;2023-09-12T02:28:14;6.35;;;3.00;;
42944;SDS011;28584;42.636;23.294;2023-09-12T02:30:39;5.65;;;3.33;;
42944;SDS011;28584;42.636;23.294;2023-09-12T02:33:08;6.95;;;3.20;;
42944;SDS011;28584;42.636;23.294;2023-09-12T02:35:33;4.90;;;3.50;;
42944;SDS011;28584;42.636;23.294;2023-09-12T02:37:59;8.32;;;4.13;;
42944;SDS011;28584;42.636;23.294;2023-09-12T02:40:24;6.32;;;3.63;;
42944;SDS011;28584;42.636;23.294;2023-09-12T02:42:50;8.88;;;3.60;;
42944;SDS011;28584;42.636;23.294;2023-09-12T02:45:16;5.10;;;4.05;;
42944;SDS011;28584;42.636;23.294;2023-09-12T02:47:41;5.57;;;3.58;;
42944;SDS011;28584;42.636;23.294;2023-09-12T02:50:08;5.45;;;3.72;;
42944;SDS011;28584;42.636;23.294;2023-09-12T02:52:34;5.10;;;3.78;;
42944;SDS011;28584;42.636;23.294;2023-09-12T02:54:59;4.90;;;3.70;;
42944;SDS011;28584;42.636;23.294;2023-09-12T02:57:25;5.38;;;3.35;;
42944;SDS011;28584;42.636;23.294;2023-09-12T02:59:50;4.57;;;3.40;;
42944;SDS011;28584;42.636;23.294;2023-09-12T03:02:16;5.68;;;3.95;;
42944;SDS011;28584;42.636;23.294;2023-09-12T03:04:41;4.97;;;3.88;;
42944;SDS011;28584;42.636;23.294;2023-09-12T03:07:06;5.55;;;3.60;;
42944;SDS011;28584;42.636;23.294;2023-09-12T03:09:32;6.78;;;3.40;;
42944;SDS011;28584;42.636;23.294;2023-09-12T03:11:57;6.82;;;4.22;;
42944;SDS011;28584;42.636;23.294;2023-09-12T03:14:23;5.18;;;3.67;;
42944;SDS011;28584;42.636;23.294;2023-09-12T03:16:48;5.85;;;3.55;;
42944;SDS011;28584;42.636;23.294;2023-09-12T03:19:14;5.38;;;3.88;;
42944;SDS011;28584;42.636;23.294;2023-09-12T03:21:39;4.90;;;3.42;;
42944;SDS011;28584;42.636;23.294;2023-09-12T03:24:05;6.40;;;3.75;;
42944;SDS011;28584;42.636;23.294;2023-09-12T03:26:30;5.55;;;3.53;;
42944;SDS011;28584;42.636;23.294;2023-09-12T03:28:59;8.07;;;3.70;;
42944;SDS011;28584;42.636;23.294;2023-09-12T03:31:24;7.57;;;3.65;;
42944;SDS011;28584;42.636;23.294;2023-09-12T03:33:50;6.47;;;4.00;;
42944;SDS011;28584;42.636;23.294;2023-09-12T03:36:16;5.97;;;3.70;;
42944;SDS011;28584;42.636;23.294;2023-09-12T03:38:44;5.07;;;3.40;;
42944;SDS011;28584;42.636;23.294;2023-09-12T03:41:09;5.63;;;3.60;;
42944;SDS011;28584;42.636;23.294;2023-09-12T03:43:36;6.47;;;3.55;;
42944;SDS011;28584;42.636;23.294;2023-09-12T03:46:01;6.35;;;3.55;;
42944;SDS011;28584;42.636;23.294;2023-09-12T03:48:28;4.90;;;4.00;;
42944;SDS011;28584;42.636;23.294;2023-09-12T03:50:55;7.70;;;3.70;;
42944;SDS011;28584;42.636;23.294;2023-09-12T03:53:21;5.00;;;3.60;;
42944;SDS011;28584;42.636;23.294;2023-09-12T03:55:46;3.70;;;3.20;;
42944;SDS011;28584;42.636;23.294;2023-09-12T03:58:12;5.80;;;3.60;;
42944;SDS011;28584;42.636;23.294;2023-09-12T04:00:37;7.10;;;3.63;;
42944;SDS011;28584;42.636;23.294;2023-09-12T04:03:03;5.20;;;3.45;;
42944;SDS011;28584;42.636;23.294;2023-09-12T04:05:28;5.85;;;4.15;;
42944;SDS011;28584;42.636;23.294;2023-09-12T04:07:54;4.95;;;3.45;;
42944;SDS011;28584;42.636;23.294;2023-09-12T04:10:20;6.07;;;4.25;;
42944;SDS011;28584;42.636;23.294;2023-09-12T04:12:45;6.53;;;4.03;;
42944;SDS011;28584;42.636;23.294;2023-09-12T04:15:11;8.40;;;4.50;;
42944;SDS011;28584;42.636;23.294;2023-09-12T04:17:36;7.97;;;4.47;;
42944;SDS011;28584;42.636;23.294;2023-09-12T04:20:02;6.88;;;5.07;;
42944;SDS011;28584;42.636;23.294;2023-09-12T04:22:29;5.90;;;4.95;;
42944;SDS011;28584;42.636;23.294;2023-09-12T04:24:55;9.98;;;4.70;;
42944;SDS011;28584;42.636;23.294;2023-09-12T04:27:20;7.95;;;5.00;;
42944;SDS011;28584;42.636;23.294;2023-09-12T04:29:46;9.57;;;5.57;;
42944;SDS011;28584;42.636;23.294;2023-09-12T04:32:11;7.57;;;5.20;;
42944;SDS011;28584;42.636;23.294;2023-09-12T04:34:37;7.20;;;4.68;;
42944;SDS011;28584;42.636;23.294;2023-09-12T04:37:02;7.28;;;4.40;;
42944;SDS011;28584;42.636;23.294;2023-09-12T04:39:28;9.93;;;5.28;;
42944;SDS011;28584;42.636;23.294;2023-09-12T04:41:55;6.50;;;4.75;;
42944;SDS011;28584;42.636;23.294;2023-09-12T04:44:20;5.50;;;4.60;;
42944;SDS011;28584;42.636;23.294;2023-09-12T04:46:45;7.70;;;4.47;;
42944;SDS011;28584;42.636;23.294;2023-09-12T04:49:11;6.32;;;4.07;;
42944;SDS011;28584;42.636;23.294;2023-09-12T04:51:37;8.45;;;4.60;;
42944;SDS011;28584;42.636;23.294;2023-09-12T04:54:03;5.53;;;3.17;;
42944;SDS011;28584;42.636;23.294;2023-09-12T04:56:29;5.80;;;3.40;;
42944;SDS011;28584;42.636;23.294;2023-09-12T04:58:54;6.10;;;3.45;;
42944;SDS011;28584;42.636;23.294;2023-09-12T05:01:20;7.32;;;4.00;;
42944;SDS011;28584;42.636;23.294;2023-09-12T05:03:45;6.88;;;3.63;;
42944;SDS011;28584;42.636;23.294;2023-09-12T05:06:11;6.70;;;4.00;;
42944;SDS011;28584;42.636;23.294;2023-09-12T05:08:38;5.57;;;3.97;;
42944;SDS011;28584;42.636;23.294;2023-09-12T05:11:03;10.23;;;5.00;;
42944;SDS011;28584;42.636;23.294;2023-09-12T05:13:29;6.00;;;4.28;;
42944;SDS011;28584;42.636;23.294;2023-09-12T05:15:55;11.30;;;4.30;;
42944;SDS011;28584;42.636;23.294;2023-09-12T05:18:21;8.55;;;4.38;;
42944;SDS011;28584;42.636;23.294;2023-09-12T05:20:47;5.97;;;4.20;;
42944;SDS011;28584;42.636;23.294;2023-09-12T05:23:13;12.32;;;4.57;;
42944;SDS011;28584;42.636;23.294;2023-09-12T05:25:38;7.25;;;4.03;;
42944;SDS011;28584;42.636;23.294;2023-09-12T05:28:04;7.75;;;4.22;;
42944;SDS011;28584;42.636;23.294;2023-09-12T05:30:30;9.02;;;4.47;;
42944;SDS011;28584;42.636;23.294;2023-09-12T05:32:55;10.57;;;4.72;;
42944;SDS011;28584;42.636;23.294;2023-09-12T05:35:21;9.70;;;4.65;;
42944;SDS011;28584;42.636;23.294;2023-09-12T05:37:46;10.00;;;4.95;;
42944;SDS011;28584;42.636;23.294;2023-09-12T05:40:12;13.35;;;5.00;;
42944;SDS011;28584;42.636;23.294;2023-09-12T05:42:38;6.13;;;4.88;;
42944;SDS011;28584;42.636;23.294;2023-09-12T05:45:03;11.82;;;5.30;;
42944;SDS011;28584;42.636;23.294;2023-09-12T05:47:31;14.63;;;6.07;;
42944;SDS011;28584;42.636;23.294;2023-09-12T05:49:56;10.32;;;5.32;;
42944;SDS011;28584;42.636;23.294;2023-09-12T05:52:24;10.82;;;6.25;;
42944;SDS011;28584;42.636;23.294;2023-09-12T05:54:49;8.82;;;5.05;;
42944;SDS011;28584;42.636;23.294;2023-09-12T05:57:15;11.07;;;5.45;;
42944;SDS011;28584;42.636;23.294;2023-09-12T05:59:41;10.75;;;5.40;;
42944;SDS011;28584;42.636;23.294;2023-09-12T06:02:06;14.90;;;6.32;;
42944;SDS011;28584;42.636;23.294;2023-09-12T06:04:34;12.27;;;5.45;;
42944;SDS011;28584;42.636;23.294;2023-09-12T06:07:01;9.00;;;5.25;;
42944;SDS011;28584;42.636;23.294;2023-09-12T06:09:27;13.50;;;5.55;;
42944;SDS011;28584;42.636;23.294;2023-09-12T06:11:52;13.07;;;5.32;;
42944;SDS011;28584;42.636;23.294;2023-09-12T06:14:18;9.35;;;5.13;;
42944;SDS011;28584;42.636;23.294;2023-09-12T06:16:44;15.30;;;6.38;;
42944;SDS011;28584;42.636;23.294;2023-09-12T06:19:09;10.25;;;5.40;;
42944;SDS011;28584;42.636;23.294;2023-09-12T06:21:34;11.60;;;5.60;;
42944;SDS011;28584;42.636;23.294;2023-09-12T06:24:13;9.02;;;5.57;;
42944;SDS011;28584;42.636;23.294;2023-09-12T06:26:46;10.85;;;6.22;;
42944;SDS011;28584;42.636;23.294;2023-09-12T06:29:14;17.52;;;6.32;;
42944;SDS011;28584;42.636;23.294;2023-09-12T06:31:39;9.63;;;5.82;;
42944;SDS011;28584;42.636;23.294;2023-09-12T06:34:08;18.85;;;6.88;;
42944;SDS011;28584;42.636;23.294;2023-09-12T06:36:34;11.13;;;6.82;;
42944;SDS011;28584;42.636;23.294;2023-09-12T06:38:59;14.20;;;6.55;;
42944;SDS011;28584;42.636;23.294;2023-09-12T06:41:26;13.88;;;6.47;;
42944;SDS011;28584;42.636;23.294;2023-09-12T06:43:52;13.77;;;6.10;;
42944;SDS011;28584;42.636;23.294;2023-09-12T06:46:18;17.25;;;6.53;;
42944;SDS011;28584;42.636;23.294;2023-09-12T06:48:47;14.50;;;6.05;;
42944;SDS011;28584;42.636;23.294;2023-09-12T06:51:14;11.98;;;5.88;;
42944;SDS011;28584;42.636;23.294;2023-09-12T06:53:39;11.00;;;6.60;;
42944;SDS011;28584;42.636;23.294;2023-09-12T06:56:05;14.35;;;6.68;;
42944;SDS011;28584;42.636;23.294;2023-09-12T06:58:31;11.45;;;6.47;;
42944;SDS011;28584;42.636;23.294;2023-09-12T07:01:06;12.10;;;6.47;;
42944;SDS011;28584;42.636;23.294;2023-09-12T07:03:32;11.27;;;6.07;;
42944;SDS011;28584;42.636;23.294;2023-09-12T07:05:59;13.25;;;6.10;;
42944;SDS011;28584;42.636;23.294;2023-09-12T07:08:24;16.15;;;6.38;;
42944;SDS011;28584;42.636;23.294;2023-09-12T07:10:50;12.27;;;6.85;;
42944;SDS011;28584;42.636;23.294;2023-09-12T07:13:15;10.55;;;6.22;;
42944;SDS011;28584;42.636;23.294;2023-09-12T07:15:41;19.35;;;7.75;;
42944;SDS011;28584;42.636;23.294;2023-09-12T07:18:06;11.77;;;6.70;;
42944;SDS011;28584;42.636;23.294;2023-09-12T07:20:33;13.40;;;6.65;;
42944;SDS011;28584;42.636;23.294;2023-09-12T07:22:59;14.38;;;6.93;;
42944;SDS011;28584;42.636;23.294;2023-09-12T07:25:24;14.00;;;6.78;;
42944;SDS011;28584;42.636;23.294;2023-09-12T07:27:50;16.40;;;7.40;;
42944;SDS011;28584;42.636;23.294;2023-09-12T07:30:16;25.75;;;7.45;;
42944;SDS011;28584;42.636;23.294;2023-09-12T07:32:42;14.88;;;7.45;;
42944;SDS011;28584;42.636;23.294;2023-09-12T07:35:07;15.57;;;7.25;;
42944;SDS011;28584;42.636;23.294;2023-09-12T07:37:33;20.23;;;8.40;;
42944;SDS011;28584;42.636;23.294;2023-09-12T07:39:58;14.32;;;7.25;;
42944;SDS011;28584;42.636;23.294;2023-09-12T07:42:24;14.98;;;7.40;;
42944;SDS011;28584;42.636;23.294;2023-09-12T07:44:49;14.55;;;7.18;;
42944;SDS011;28584;42.636;23.294;2023-09-12T07:47:15;13.88;;;6.50;;
42944;SDS011;28584;42.636;23.294;2023-09-12T07:49:41;15.00;;;7.10;;
42944;SDS011;28584;42.636;23.294;2023-09-12T07:52:06;11.02;;;6.45;;
42944;SDS011;28584;42.636;23.294;2023-09-12T07:54:32;10.43;;;6.68;;
42944;SDS011;28584;42.636;23.294;2023-09-12T07:56:57;14.77;;;6.93;;
42944;SDS011;28584;42.636;23.294;2023-09-12T07:59:24;11.13;;;6.38;;
42944;SDS011;28584;42.636;23.294;2023-09-12T08:01:50;13.45;;;6.38;;
42944;SDS011;28584;42.636;23.294;2023-09-12T08:04:16;21.85;;;7.88;;
42944;SDS011;28584;42.636;23.294;2023-09-12T08:06:41;13.90;;;6.80;;
42944;SDS011;28584;42.636;23.294;2023-09-12T08:09:07;14.30;;;6.68;;
42944;SDS011;28584;42.636;23.294;2023-09-12T08:11:33;16.20;;;6.93;;
42944;SDS011;28584;42.636;23.294;2023-09-12T08:13:59;13.30;;;6.43;;
42944;SDS011;28584;42.636;23.294;2023-09-12T08:16:24;12.57;;;6.20;;
42944;SDS011;28584;42.636;23.294;2023-09-12T08:18:49;13.05;;;5.43;;
42944;SDS011;28584;42.636;23.294;2023-09-12T08:21:15;13.63;;;5.38;;
42944;SDS011;28584;42.636;23.294;2023-09-12T08:23:40;13.70;;;4.97;;
42944;SDS011;28584;42.636;23.294;2023-09-12T08:26:06;12.32;;;5.10;;
42944;SDS011;28584;42.636;23.294;2023-09-12T08:28:32;10.70;;;4.80;;
42944;SDS011;28584;42.636;23.294;2023-09-12T08:30:57;8.80;;;4.40;;
42944;SDS011;28584;42.636;23.294;2023-09-12T08:33:22;10.32;;;4.80;;
42944;SDS011;28584;42.636;23.294;2023-09-12T08:35:48;7.57;;;4.60;;
42944;SDS011;28584;42.636;23.294;2023-09-12T08:38:15;11.93;;;4.53;;
42944;SDS011;28584;42.636;23.294;2023-09-12T08:40:41;10.90;;;3.97;;
42944;SDS011;28584;42.636;23.294;2023-09-12T08:43:12;13.75;;;4.57;;
42944;SDS011;28584;42.636;23.294;2023-09-12T08:45:37;6.63;;;3.85;;
42944;SDS011;28584;42.636;23.294;2023-09-12T08:48:03;6.50;;;3.58;;
42944;SDS011;28584;42.636;23.294;2023-09-12T08:50:30;6.88;;;3.55;;
42944;SDS011;28584;42.636;23.294;2023-09-12T08:52:58;5.00;;;3.83;;
42944;SDS011;28584;42.636;23.294;2023-09-12T08:55:23;11.02;;;3.97;;
42944;SDS011;28584;42.636;23.294;2023-09-12T08:57:50;6.00;;;3.78;;
42944;SDS011;28584;42.636;23.294;2023-09-12T09:00:16;13.57;;;3.90;;
42944;SDS011;28584;42.636;23.294;2023-09-12T09:02:43;10.65;;;4.22;;
42944;SDS011;28584;42.636;23.294;2023-09-12T09:05:10;7.20;;;3.95;;
42944;SDS011;28584;42.636;23.294;2023-09-12T09:07:39;7.25;;;3.95;;
42944;SDS011;28584;42.636;23.294;2023-09-12T09:10:07;6.50;;;3.63;;
42944;SDS011;28584;42.636;23.294;2023-09-12T09:12:35;6.75;;;3.85;;
42944;SDS011;28584;42.636;23.294;2023-09-12T09:15:19;7.72;;;4.45;;
42944;SDS011;28584;42.636;23.294;2023-09-12T09:17:48;8.43;;;4.15;;
42944;SDS011;28584;42.636;23.294;2023-09-12T09:20:27;10.43;;;5.00;;
42944;SDS011;28584;42.636;23.294;2023-09-12T09:23:07;9.63;;;4.35;;
42944;SDS011;28584;42.636;23.294;2023-09-12T09:25:40;12.10;;;4.60;;
42944;SDS011;28584;42.636;23.294;2023-09-12T09:28:19;8.23;;;4.60;;
42944;SDS011;28584;42.636;23.294;2023-09-12T09:30:46;7.05;;;3.53;;
42944;SDS011;28584;42.636;23.294;2023-09-12T09:33:13;9.90;;;4.38;;
42944;SDS011;28584;42.636;23.294;2023-09-12T09:35:41;8.70;;;4.05;;
42944;SDS011;28584;42.636;23.294;2023-09-12T09:38:07;10.88;;;4.70;;
42944;SDS011;28584;42.636;23.294;2023-09-12T09:40:46;11.90;;;4.28;;
42944;SDS011;28584;42.636;23.294;2023-09-12T09:43:11;8.73;;;5.07;;
42944;SDS011;28584;42.636;23.294;2023-09-12T09:45:43;7.95;;;3.97;;
42944;SDS011;28584;42.636;23.294;2023-09-12T09:48:10;6.55;;;4.40;;
42944;SDS011;28584;42.636;23.294;2023-09-12T09:50:35;9.18;;;4.10;;
42944;SDS011;28584;42.636;23.294;2023-09-12T09:53:02;6.55;;;4.10;;
42944;SDS011;28584;42.636;23.294;2023-09-12T09:55:29;8.52;;;4.35;;
42944;SDS011;28584;42.636;23.294;2023-09-12T09:57:55;17.52;;;4.22;;
42944;SDS011;28584;42.636;23.294;2023-09-12T10:00:22;9.30;;;3.63;;
42944;SDS011;28584;42.636;23.294;2023-09-12T10:02:48;8.02;;;3.25;;
42944;SDS011;28584;42.636;23.294;2023-09-12T10:05:16;11.48;;;4.50;;
42944;SDS011;28584;42.636;23.294;2023-09-12T10:07:42;6.35;;;4.13;;
42944;SDS011;28584;42.636;23.294;2023-09-12T10:10:12;6.90;;;3.53;;
42944;SDS011;28584;42.636;23.294;2023-09-12T10:12:40;8.00;;;3.83;;
42944;SDS011;28584;42.636;23.294;2023-09-12T10:15:10;12.18;;;3.78;;
42944;SDS011;28584;42.636;23.294;2023-09-12T10:17:39;14.23;;;4.78;;
42944;SDS011;28584;42.636;23.294;2023-09-12T10:20:12;7.78;;;4.18;;
42944;SDS011;28584;42.636;23.294;2023-09-12T10:22:47;9.95;;;3.92;;
42944;SDS011;28584;42.636;23.294;2023-09-12T10:25:36;12.65;;;4.65;;
42944;SDS011;28584;42.636;23.294;2023-09-12T10:28:05;10.43;;;4.22;;
42944;SDS011;28584;42.636;23.294;2023-09-12T10:30:33;9.50;;;4.50;;
42944;SDS011;28584;42.636;23.294;2023-09-12T10:33:01;10.82;;;3.75;;
42944;SDS011;28584;42.636;23.294;2023-09-12T10:35:28;9.07;;;3.80;;
42944;SDS011;28584;42.636;23.294;2023-09-12T10:37:56;8.57;;;3.78;;
42944;SDS011;28584;42.636;23.294;2023-09-12T10:40:26;5.53;;;3.78;;
42944;SDS011;28584;42.636;23.294;2023-09-12T10:42:55;6.93;;;3.92;;
42944;SDS011;28584;42.636;23.294;2023-09-12T10:45:21;17.00;;;4.50;;
42944;SDS011;28584;42.636;23.294;2023-09-12T10:47:47;8.35;;;4.47;;
42944;SDS011;28584;42.636;23.294;2023-09-12T10:50:12;9.57;;;4.15;;
42944;SDS011;28584;42.636;23.294;2023-09-12T10:52:39;9.80;;;3.90;;
42944;SDS011;28584;42.636;23.294;2023-09-12T10:55:06;8.60;;;4.45;;
42944;SDS011;28584;42.636;23.294;2023-09-12T10:57:59;8.00;;;4.05;;
42944;SDS011;28584;42.636;23.294;2023-09-12T11:00:27;9.95;;;4.55;;
42944;SDS011;28584;42.636;23.294;2023-09-12T11:02:53;9.88;;;3.92;;
42944;SDS011;28584;42.636;23.294;2023-09-12T11:07:59;8.57;;;3.70;;
42944;SDS011;28584;42.636;23.294;2023-09-12T11:10:25;11.07;;;3.85;;
42944;SDS011;28584;42.636;23.294;2023-09-12T11:12:52;8.43;;;4.57;;
42944;SDS011;28584;42.636;23.294;2023-09-12T11:15:20;9.18;;;3.72;;
42944;SDS011;28584;42.636;23.294;2023-09-12T11:17:47;4.80;;;3.17;;
42944;SDS011;28584;42.636;23.294;2023-09-12T11:20:14;9.80;;;4.32;;
42944;SDS011;28584;42.636;23.294;2023-09-12T11:22:47;8.65;;;4.15;;
42944;SDS011;28584;42.636;23.294;2023-09-12T11:30:25;8.07;;;3.72;;
42944;SDS011;28584;42.636;23.294;2023-09-12T11:32:54;10.50;;;3.88;;
42944;SDS011;28584;42.636;23.294;2023-09-12T11:35:24;8.10;;;3.67;;
42944;SDS011;28584;42.636;23.294;2023-09-12T11:37:51;8.68;;;3.40;;
42944;SDS011;28584;42.636;23.294;2023-09-12T11:40:24;9.02;;;4.05;;
42944;SDS011;28584;42.636;23.294;2023-09-12T11:42:51;8.27;;;3.60;;
42944;SDS011;28584;42.636;23.294;2023-09-12T11:45:18;7.78;;;3.67;;
42944;SDS011;28584;42.636;23.294;2023-09-12T11:47:45;8.98;;;3.55;;
42944;SDS011;28584;42.636;23.294;2023-09-12T11:50:30;6.28;;;3.38;;
42944;SDS011;28584;42.636;23.294;2023-09-12T11:53:04;6.65;;;3.15;;
42944;SDS011;28584;42.636;23.294;2023-09-12T11:58:10;11.82;;;3.53;;
42944;SDS011;28584;42.636;23.294;2023-09-12T12:00:36;7.20;;;3.60;;
42944;SDS011;28584;42.636;23.294;2023-09-12T12:03:03;11.57;;;3.83;;
42944;SDS011;28584;42.636;23.294;2023-09-12T12:05:29;10.05;;;3.75;;
42944;SDS011;28584;42.636;23.294;2023-09-12T12:07:55;6.68;;;3.63;;
42944;SDS011;28584;42.636;23.294;2023-09-12T12:10:20;9.60;;;3.80;;
42944;SDS011;28584;42.636;23.294;2023-09-12T12:12:48;7.45;;;3.70;;
42944;SDS011;28584;42.636;23.294;2023-09-12T12:15:18;6.65;;;3.65;;
42944;SDS011;28584;42.636;23.294;2023-09-12T12:17:43;9.82;;;4.10;;
42944;SDS011;28584;42.636;23.294;2023-09-12T12:20:09;8.95;;;4.15;;
42944;SDS011;28584;42.636;23.294;2023-09-12T12:22:39;13.50;;;4.20;;
42944;SDS011;28584;42.636;23.294;2023-09-12T12:25:08;10.48;;;4.00;;
42944;SDS011;28584;42.636;23.294;2023-09-12T12:27:39;5.72;;;3.67;;
42944;SDS011;28584;42.636;23.294;2023-09-12T12:30:06;7.65;;;4.00;;
42944;SDS011;28584;42.636;23.294;2023-09-12T12:32:33;14.98;;;4.15;;
42944;SDS011;28584;42.636;23.294;2023-09-12T12:34:58;11.25;;;3.80;;
42944;SDS011;28584;42.636;23.294;2023-09-12T12:37:27;9.27;;;4.03;;
42944;SDS011;28584;42.636;23.294;2023-09-12T12:39:55;9.23;;;3.85;;
42944;SDS011;28584;42.636;23.294;2023-09-12T12:42:21;8.85;;;3.80;;
42944;SDS011;28584;42.636;23.294;2023-09-12T12:44:52;6.78;;;4.05;;
42944;SDS011;28584;42.636;23.294;2023-09-12T12:47:18;7.22;;;3.80;;
42944;SDS011;28584;42.636;23.294;2023-09-12T12:49:46;5.47;;;3.63;;
42944;SDS011;28584;42.636;23.294;2023-09-12T12:52:21;9.18;;;4.22;;
42944;SDS011;28584;42.636;23.294;2023-09-12T12:54:48;10.38;;;4.55;;
42944;SDS011;28584;42.636;23.294;2023-09-12T12:57:17;9.05;;;4.38;;
42944;SDS011;28584;42.636;23.294;2023-09-12T12:59:49;8.32;;;3.30;;
42944;SDS011;28584;42.636;23.294;2023-09-12T13:02:16;5.93;;;3.60;;
42944;SDS011;28584;42.636;23.294;2023-09-12T13:04:41;9.68;;;3.58;;
42944;SDS011;28584;42.636;23.294;2023-09-12T13:07:07;6.90;;;3.85;;
42944;SDS011;28584;42.636;23.294;2023-09-12T13:09:32;10.98;;;3.70;;
42944;SDS011;28584;42.636;23.294;2023-09-12T13:11:59;6.95;;;3.75;;
42944;SDS011;28584;42.636;23.294;2023-09-12T13:14:25;11.48;;;4.00;;
42944;SDS011;28584;42.636;23.294;2023-09-12T13:16:56;7.18;;;3.78;;
42944;SDS011;28584;42.636;23.294;2023-09-12T13:19:23;7.32;;;3.78;;
42944;SDS011;28584;42.636;23.294;2023-09-12T13:21:48;10.02;;;3.38;;
42944;SDS011;28584;42.636;23.294;2023-09-12T13:24:14;9.88;;;3.80;;
42944;SDS011;28584;42.636;23.294;2023-09-12T13:26:39;6.90;;;3.63;;
42944;SDS011;28584;42.636;23.294;2023-09-12T13:29:05;16.88;;;3.90;;
42944;SDS011;28584;42.636;23.294;2023-09-12T13:31:30;5.95;;;3.42;;
42944;SDS011;28584;42.636;23.294;2023-09-12T13:33:57;7.10;;;3.78;;
42944;SDS011;28584;42.636;23.294;2023-09-12T13:36:22;11.27;;;4.10;;
42944;SDS011;28584;42.636;23.294;2023-09-12T13:38:48;7.65;;;3.80;;
42944;SDS011;28584;42.636;23.294;2023-09-12T13:41:16;9.75;;;3.92;;
42944;SDS011;28584;42.636;23.294;2023-09-12T13:43:42;8.40;;;3.88;;
42944;SDS011;28584;42.636;23.294;2023-09-12T13:46:10;5.10;;;3.88;;
42944;SDS011;28584;42.636;23.294;2023-09-12T13:48:35;6.55;;;3.63;;
42944;SDS011;28584;42.636;23.294;2023-09-12T13:51:01;8.07;;;3.85;;
42944;SDS011;28584;42.636;23.294;2023-09-12T13:53:27;8.82;;;4.10;;
42944;SDS011;28584;42.636;23.294;2023-09-12T13:55:52;14.10;;;3.92;;
42944;SDS011;28584;42.636;23.294;2023-09-12T13:58:18;8.15;;;3.42;;
42944;SDS011;28584;42.636;23.294;2023-09-12T14:00:44;7.18;;;3.40;;
42944;SDS011;28584;42.636;23.294;2023-09-12T14:03:09;10.25;;;4.47;;
42944;SDS011;28584;42.636;23.294;2023-09-12T14:05:34;10.60;;;3.78;;
42944;SDS011;28584;42.636;23.294;2023-09-12T14:08:00;4.47;;;3.90;;
42944;SDS011;28584;42.636;23.294;2023-09-12T14:10:25;7.85;;;3.97;;
42944;SDS011;28584;42.636;23.294;2023-09-12T14:12:51;6.38;;;3.90;;
42944;SDS011;28584;42.636;23.294;2023-09-12T14:15:16;8.10;;;3.78;;
42944;SDS011;28584;42.636;23.294;2023-09-12T14:17:42;7.13;;;3.40;;
42944;SDS011;28584;42.636;23.294;2023-09-12T14:20:07;5.93;;;3.83;;
42944;SDS011;28584;42.636;23.294;2023-09-12T14:22:34;5.55;;;3.72;;
42944;SDS011;28584;42.636;23.294;2023-09-12T14:24:59;7.80;;;3.95;;
42944;SDS011;28584;42.636;23.294;2023-09-12T14:27:25;5.32;;;4.25;;
42944;SDS011;28584;42.636;23.294;2023-09-12T14:29:50;9.55;;;4.15;;
42944;SDS011;28584;42.636;23.294;2023-09-12T14:32:16;12.88;;;4.07;;
42944;SDS011;28584;42.636;23.294;2023-09-12T14:34:41;7.63;;;4.10;;
42944;SDS011;28584;42.636;23.294;2023-09-12T14:37:07;11.32;;;3.63;;
42944;SDS011;28584;42.636;23.294;2023-09-12T14:39:33;6.20;;;3.03;;
42944;SDS011;28584;42.636;23.294;2023-09-12T14:41:58;8.43;;;3.80;;
42944;SDS011;28584;42.636;23.294;2023-09-12T14:44:24;9.75;;;4.05;;
42944;SDS011;28584;42.636;23.294;2023-09-12T14:46:50;9.50;;;4.60;;